sensor_id;sensor_type;location;lat;lon;timestamp;pressure;altitude;pressure_sealevel;temperature
71564;BMP180;59391;52.504;13.438;2022-09-06T00:00:39;101899.00;;;21.40
71564;BMP180;59391;52.504;13.438;2022-09-06T00:03:06;101894.00;;;21.40
71564;BMP180;59391;52.504;13.438;2022-09-06T00:05:33;101895.00;;;21.40
71564;BMP180;59391;52.504;13.438;2022-09-06T00:08:01;101889.00;;;21.30
71564;BMP180;59391;52.504;13.438;2022-09-06T00:10:28;101898.00;;;21.30
71564;BMP180;59391;52.504;13.438;2022-09-06T00:12:59;101898.00;;;21.30
71564;BMP180;59391;52.504;13.438;2022-09-06T00:15:24;101897.00;;;21.30
71564;BMP180;59391;52.504;13.438;2022-09-06T00:17:50;101889.00;;;21.20
71564;BMP180;59391;52.504;13.438;2022-09-06T00:20:16;101883.00;;;21.20
71564;BMP180;59391;52.504;13.438;2022-09-06T00:22:42;101902.00;;;21.20
71564;BMP180;59391;52.504;13.438;2022-09-06T00:25:08;101898.00;;;21.20
71564;BMP180;59391;52.504;13.438;2022-09-06T00:27:34;101884.00;;;21.20
71564;BMP180;59391;52.504;13.438;2022-09-06T00:30:00;101885.00;;;21.10
71564;BMP180;59391;52.504;13.438;2022-09-06T00:32:26;101885.00;;;21.10
71564;BMP180;59391;52.504;13.438;2022-09-06T00:34:51;101887.00;;;21.10
71564;BMP180;59391;52.504;13.438;2022-09-06T00:37:17;101885.00;;;21.10
71564;BMP180;59391;52.504;13.438;2022-09-06T00:39:43;101888.00;;;21.00
71564;BMP180;59391;52.504;13.438;2022-09-06T00:42:11;101885.00;;;21.00
71564;BMP180;59391;52.504;13.438;2022-09-06T00:44:37;101880.00;;;21.00
71564;BMP180;59391;52.504;13.438;2022-09-06T00:47:04;101880.00;;;21.00
71564;BMP180;59391;52.504;13.438;2022-09-06T00:49:41;101880.00;;;20.90
71564;BMP180;59391;52.504;13.438;2022-09-06T00:52:13;101890.00;;;20.90
71564;BMP180;59391;52.504;13.438;2022-09-06T00:54:41;101879.00;;;20.90
71564;BMP180;59391;52.504;13.438;2022-09-06T00:57:07;101876.00;;;20.90
71564;BMP180;59391;52.504;13.438;2022-09-06T00:59:36;101884.00;;;20.80
71564;BMP180;59391;52.504;13.438;2022-09-06T01:02:06;101896.00;;;20.80
71564;BMP180;59391;52.504;13.438;2022-09-06T01:04:35;101885.00;;;20.80
71564;BMP180;59391;52.504;13.438;2022-09-06T01:07:33;101888.00;;;20.70
71564;BMP180;59391;52.504;13.438;2022-09-06T01:10:23;101892.00;;;20.70
71564;BMP180;59391;52.504;13.438;2022-09-06T01:13:49;101875.00;;;20.60
71564;BMP180;59391;52.504;13.438;2022-09-06T01:19:27;101886.00;;;20.60
71564;BMP180;59391;52.504;13.438;2022-09-06T01:22:13;101880.00;;;20.60
71564;BMP180;59391;52.504;13.438;2022-09-06T01:25:33;101879.00;;;20.50
71564;BMP180;59391;52.504;13.438;2022-09-06T01:28:43;101862.00;;;20.50
71564;BMP180;59391;52.504;13.438;2022-09-06T01:36:47;101873.00;;;20.40
71564;BMP180;59391;52.504;13.438;2022-09-06T01:39:28;101875.00;;;20.40
71564;BMP180;59391;52.504;13.438;2022-09-06T01:41:57;101875.00;;;20.40
71564;BMP180;59391;52.504;13.438;2022-09-06T01:44:25;101870.00;;;20.30
71564;BMP180;59391;52.504;13.438;2022-09-06T01:47:15;101872.00;;;20.30
71564;BMP180;59391;52.504;13.438;2022-09-06T01:50:05;101872.00;;;20.30
71564;BMP180;59391;52.504;13.438;2022-09-06T01:52:46;101870.00;;;20.30
71564;BMP180;59391;52.504;13.438;2022-09-06T01:55:45;101865.00;;;20.30
71564;BMP180;59391;52.504;13.438;2022-09-06T02:01:55;101863.00;;;20.20
71564;BMP180;59391;52.504;13.438;2022-09-06T02:04:43;101855.00;;;20.20
71564;BMP180;59391;52.504;13.438;2022-09-06T02:07:23;101870.00;;;20.20
71564;BMP180;59391;52.504;13.438;2022-09-06T02:12:48;101858.00;;;20.10
71564;BMP180;59391;52.504;13.438;2022-09-06T02:15:28;101853.00;;;20.10
71564;BMP180;59391;52.504;13.438;2022-09-06T02:18:18;101857.00;;;20.10
71564;BMP180;59391;52.504;13.438;2022-09-06T02:20:51;101855.00;;;20.10
71564;BMP180;59391;52.504;13.438;2022-09-06T02:23:22;101856.00;;;20.10
71564;BMP180;59391;52.504;13.438;2022-09-06T02:26:02;101852.00;;;20.00
71564;BMP180;59391;52.504;13.438;2022-09-06T02:28:29;101855.00;;;20.00
71564;BMP180;59391;52.504;13.438;2022-09-06T02:31:00;101845.00;;;20.00
71564;BMP180;59391;52.504;13.438;2022-09-06T02:33:31;101851.00;;;20.00
71564;BMP180;59391;52.504;13.438;2022-09-06T02:36:05;101853.00;;;20.00
71564;BMP180;59391;52.504;13.438;2022-09-06T02:38:34;101855.00;;;19.90
71564;BMP180;59391;52.504;13.438;2022-09-06T02:41:02;101848.00;;;19.90
71564;BMP180;59391;52.504;13.438;2022-09-06T02:43:29;101851.00;;;19.90
71564;BMP180;59391;52.504;13.438;2022-09-06T02:45:54;101857.00;;;19.90
71564;BMP180;59391;52.504;13.438;2022-09-06T02:48:20;101851.00;;;19.90
71564;BMP180;59391;52.504;13.438;2022-09-06T02:50:46;101841.00;;;19.90
71564;BMP180;59391;52.504;13.438;2022-09-06T02:53:14;101856.00;;;19.80
71564;BMP180;59391;52.504;13.438;2022-09-06T02:55:40;101858.00;;;19.90
71564;BMP180;59391;52.504;13.438;2022-09-06T02:58:09;101861.00;;;19.80
71564;BMP180;59391;52.504;13.438;2022-09-06T03:00:35;101851.00;;;19.80
71564;BMP180;59391;52.504;13.438;2022-09-06T03:03:02;101849.00;;;19.80
71564;BMP180;59391;52.504;13.438;2022-09-06T03:05:28;101845.00;;;19.80
71564;BMP180;59391;52.504;13.438;2022-09-06T03:07:54;101857.00;;;19.80
71564;BMP180;59391;52.504;13.438;2022-09-06T03:10:21;101844.00;;;19.80
71564;BMP180;59391;52.504;13.438;2022-09-06T03:12:47;101845.00;;;19.70
71564;BMP180;59391;52.504;13.438;2022-09-06T03:15:14;101840.00;;;19.70
71564;BMP180;59391;52.504;13.438;2022-09-06T03:17:42;101831.00;;;19.70
71564;BMP180;59391;52.504;13.438;2022-09-06T03:20:10;101839.00;;;19.60
71564;BMP180;59391;52.504;13.438;2022-09-06T03:22:37;101842.00;;;19.70
71564;BMP180;59391;52.504;13.438;2022-09-06T03:25:05;101835.00;;;19.60
71564;BMP180;59391;52.504;13.438;2022-09-06T03:27:31;101841.00;;;19.60
71564;BMP180;59391;52.504;13.438;2022-09-06T03:29:57;101832.00;;;19.60
71564;BMP180;59391;52.504;13.438;2022-09-06T03:32:23;101842.00;;;19.60
71564;BMP180;59391;52.504;13.438;2022-09-06T03:34:49;101834.00;;;19.60
71564;BMP180;59391;52.504;13.438;2022-09-06T03:37:15;101830.00;;;19.60
71564;BMP180;59391;52.504;13.438;2022-09-06T03:39:40;101832.00;;;19.60
71564;BMP180;59391;52.504;13.438;2022-09-06T03:42:06;101833.00;;;19.50
71564;BMP180;59391;52.504;13.438;2022-09-06T03:44:32;101840.00;;;19.50
71564;BMP180;59391;52.504;13.438;2022-09-06T03:46:58;101823.00;;;19.50
71564;BMP180;59391;52.504;13.438;2022-09-06T03:49:23;101828.00;;;19.50
71564;BMP180;59391;52.504;13.438;2022-09-06T03:51:49;101832.00;;;19.50
71564;BMP180;59391;52.504;13.438;2022-09-06T03:54:15;101830.00;;;19.50
71564;BMP180;59391;52.504;13.438;2022-09-06T03:56:40;101827.00;;;19.50
71564;BMP180;59391;52.504;13.438;2022-09-06T03:59:06;101833.00;;;19.50
71564;BMP180;59391;52.504;13.438;2022-09-06T04:01:31;101837.00;;;19.40
71564;BMP180;59391;52.504;13.438;2022-09-06T04:03:57;101838.00;;;19.40
71564;BMP180;59391;52.504;13.438;2022-09-06T04:06:24;101829.00;;;19.40
71564;BMP180;59391;52.504;13.438;2022-09-06T04:08:49;101835.00;;;19.40
71564;BMP180;59391;52.504;13.438;2022-09-06T04:11:15;101832.00;;;19.40
71564;BMP180;59391;52.504;13.438;2022-09-06T04:13:41;101835.00;;;19.40
71564;BMP180;59391;52.504;13.438;2022-09-06T04:16:06;101832.00;;;19.30
71564;BMP180;59391;52.504;13.438;2022-09-06T04:18:32;101832.00;;;19.30
71564;BMP180;59391;52.504;13.438;2022-09-06T04:20:58;101827.00;;;19.30
71564;BMP180;59391;52.504;13.438;2022-09-06T04:23:26;101825.00;;;19.30
71564;BMP180;59391;52.504;13.438;2022-09-06T04:25:56;101823.00;;;19.30
71564;BMP180;59391;52.504;13.438;2022-09-06T04:28:23;101824.00;;;19.30
71564;BMP180;59391;52.504;13.438;2022-09-06T04:31:01;101823.00;;;19.20
71564;BMP180;59391;52.504;13.438;2022-09-06T04:33:28;101823.00;;;19.20
71564;BMP180;59391;52.504;13.438;2022-09-06T04:35:57;101824.00;;;19.20
71564;BMP180;59391;52.504;13.438;2022-09-06T04:38:25;101827.00;;;19.20
71564;BMP180;59391;52.504;13.438;2022-09-06T04:40:51;101809.00;;;19.20
71564;BMP180;59391;52.504;13.438;2022-09-06T04:43:17;101817.00;;;19.20
71564;BMP180;59391;52.504;13.438;2022-09-06T04:45:43;101817.00;;;19.20
71564;BMP180;59391;52.504;13.438;2022-09-06T04:48:09;101815.00;;;19.10
71564;BMP180;59391;52.504;13.438;2022-09-06T04:50:36;101808.00;;;19.10
71564;BMP180;59391;52.504;13.438;2022-09-06T04:53:02;101813.00;;;19.10
71564;BMP180;59391;52.504;13.438;2022-09-06T04:55:28;101812.00;;;19.10
71564;BMP180;59391;52.504;13.438;2022-09-06T04:57:57;101804.00;;;19.10
71564;BMP180;59391;52.504;13.438;2022-09-06T05:00:31;101808.00;;;19.10
71564;BMP180;59391;52.504;13.438;2022-09-06T05:02:57;101804.00;;;19.10
71564;BMP180;59391;52.504;13.438;2022-09-06T05:05:23;101804.00;;;19.10
71564;BMP180;59391;52.504;13.438;2022-09-06T05:07:53;101803.00;;;19.10
71564;BMP180;59391;52.504;13.438;2022-09-06T05:10:21;101805.00;;;19.10
71564;BMP180;59391;52.504;13.438;2022-09-06T05:12:52;101810.00;;;19.20
71564;BMP180;59391;52.504;13.438;2022-09-06T05:15:20;101802.00;;;19.20
71564;BMP180;59391;52.504;13.438;2022-09-06T05:17:46;101794.00;;;19.20
71564;BMP180;59391;52.504;13.438;2022-09-06T05:20:13;101804.00;;;19.20
71564;BMP180;59391;52.504;13.438;2022-09-06T05:22:40;101802.00;;;19.20
71564;BMP180;59391;52.504;13.438;2022-09-06T05:25:07;101791.00;;;19.20
71564;BMP180;59391;52.504;13.438;2022-09-06T05:27:33;101795.00;;;19.20
71564;BMP180;59391;52.504;13.438;2022-09-06T05:29:59;101797.00;;;19.20
71564;BMP180;59391;52.504;13.438;2022-09-06T05:32:24;101779.00;;;19.20
71564;BMP180;59391;52.504;13.438;2022-09-06T05:34:50;101774.00;;;19.30
71564;BMP180;59391;52.504;13.438;2022-09-06T05:37:15;101794.00;;;19.30
71564;BMP180;59391;52.504;13.438;2022-09-06T05:39:41;101795.00;;;19.30
71564;BMP180;59391;52.504;13.438;2022-09-06T05:42:07;101788.00;;;19.30
71564;BMP180;59391;52.504;13.438;2022-09-06T05:44:34;101797.00;;;19.30
71564;BMP180;59391;52.504;13.438;2022-09-06T05:46:59;101803.00;;;19.30
71564;BMP180;59391;52.504;13.438;2022-09-06T05:49:27;101800.00;;;19.30
71564;BMP180;59391;52.504;13.438;2022-09-06T05:51:53;101765.00;;;19.40
71564;BMP180;59391;52.504;13.438;2022-09-06T05:54:18;101800.00;;;19.40
71564;BMP180;59391;52.504;13.438;2022-09-06T05:56:44;101805.00;;;19.40
71564;BMP180;59391;52.504;13.438;2022-09-06T05:59:10;101809.00;;;19.40
71564;BMP180;59391;52.504;13.438;2022-09-06T06:01:35;101821.00;;;19.40
71564;BMP180;59391;52.504;13.438;2022-09-06T06:04:03;101811.00;;;19.40
71564;BMP180;59391;52.504;13.438;2022-09-06T06:06:32;101807.00;;;19.40
71564;BMP180;59391;52.504;13.438;2022-09-06T06:09:00;101798.00;;;19.40
71564;BMP180;59391;52.504;13.438;2022-09-06T06:11:27;101808.00;;;19.50
71564;BMP180;59391;52.504;13.438;2022-09-06T06:13:52;101797.00;;;19.50
71564;BMP180;59391;52.504;13.438;2022-09-06T06:16:21;101790.00;;;19.50
71564;BMP180;59391;52.504;13.438;2022-09-06T06:18:47;101785.00;;;19.60
71564;BMP180;59391;52.504;13.438;2022-09-06T06:21:14;101782.00;;;19.60
71564;BMP180;59391;52.504;13.438;2022-09-06T06:23:43;101783.00;;;19.60
71564;BMP180;59391;52.504;13.438;2022-09-06T06:26:11;101776.00;;;19.70
71564;BMP180;59391;52.504;13.438;2022-09-06T06:28:37;101773.00;;;19.70
71564;BMP180;59391;52.504;13.438;2022-09-06T06:31:05;101789.00;;;19.70
71564;BMP180;59391;52.504;13.438;2022-09-06T06:33:31;101771.00;;;19.80
71564;BMP180;59391;52.504;13.438;2022-09-06T06:38:41;101780.00;;;19.90
71564;BMP180;59391;52.504;13.438;2022-09-06T06:41:14;101783.00;;;19.80
71564;BMP180;59391;52.504;13.438;2022-09-06T06:43:40;101777.00;;;19.90
71564;BMP180;59391;52.504;13.438;2022-09-06T06:46:13;101804.00;;;20.00
71564;BMP180;59391;52.504;13.438;2022-09-06T06:48:41;101767.00;;;20.00
71564;BMP180;59391;52.504;13.438;2022-09-06T06:51:10;101794.00;;;19.90
71564;BMP180;59391;52.504;13.438;2022-09-06T06:53:36;101775.00;;;20.20
71564;BMP180;59391;52.504;13.438;2022-09-06T06:56:39;101783.00;;;20.20
71564;BMP180;59391;52.504;13.438;2022-09-06T06:59:09;101779.00;;;20.30
71564;BMP180;59391;52.504;13.438;2022-09-06T07:01:35;101778.00;;;20.30
71564;BMP180;59391;52.504;13.438;2022-09-06T07:04:01;101768.00;;;20.40
71564;BMP180;59391;52.504;13.438;2022-09-06T07:06:27;101775.00;;;20.50
71564;BMP180;59391;52.504;13.438;2022-09-06T07:08:56;101774.00;;;20.50
71564;BMP180;59391;52.504;13.438;2022-09-06T07:11:23;101782.00;;;20.60
71564;BMP180;59391;52.504;13.438;2022-09-06T07:13:48;101776.00;;;20.70
71564;BMP180;59391;52.504;13.438;2022-09-06T07:16:22;101752.00;;;20.80
71564;BMP180;59391;52.504;13.438;2022-09-06T07:18:52;101757.00;;;20.90
71564;BMP180;59391;52.504;13.438;2022-09-06T07:21:22;101775.00;;;20.90
71564;BMP180;59391;52.504;13.438;2022-09-06T07:23:52;101775.00;;;21.00
71564;BMP180;59391;52.504;13.438;2022-09-06T07:26:22;101769.00;;;21.10
71564;BMP180;59391;52.504;13.438;2022-09-06T07:28:52;101790.00;;;21.10
71564;BMP180;59391;52.504;13.438;2022-09-06T07:31:20;101777.00;;;21.20
71564;BMP180;59391;52.504;13.438;2022-09-06T07:33:46;101790.00;;;21.30
71564;BMP180;59391;52.504;13.438;2022-09-06T07:36:15;101776.00;;;21.30
71564;BMP180;59391;52.504;13.438;2022-09-06T07:38:48;101780.00;;;21.40
71564;BMP180;59391;52.504;13.438;2022-09-06T07:41:14;101792.00;;;21.50
71564;BMP180;59391;52.504;13.438;2022-09-06T07:43:41;101791.00;;;21.50
71564;BMP180;59391;52.504;13.438;2022-09-06T07:46:14;101801.00;;;21.70
71564;BMP180;59391;52.504;13.438;2022-09-06T07:48:42;101794.00;;;21.70
71564;BMP180;59391;52.504;13.438;2022-09-06T07:51:15;101797.00;;;21.80
71564;BMP180;59391;52.504;13.438;2022-09-06T07:53:43;101779.00;;;21.80
71564;BMP180;59391;52.504;13.438;2022-09-06T07:56:11;101785.00;;;21.80
71564;BMP180;59391;52.504;13.438;2022-09-06T07:58:39;101786.00;;;21.80
71564;BMP180;59391;52.504;13.438;2022-09-06T08:06:33;101772.00;;;22.20
71564;BMP180;59391;52.504;13.438;2022-09-06T08:09:00;101779.00;;;22.30
71564;BMP180;59391;52.504;13.438;2022-09-06T08:11:30;101778.00;;;22.40
71564;BMP180;59391;52.504;13.438;2022-09-06T08:13:58;101780.00;;;22.50
71564;BMP180;59391;52.504;13.438;2022-09-06T08:16:27;101779.00;;;22.60
71564;BMP180;59391;52.504;13.438;2022-09-06T08:18:59;101781.00;;;22.80
71564;BMP180;59391;52.504;13.438;2022-09-06T08:21:29;101760.00;;;22.90
71564;BMP180;59391;52.504;13.438;2022-09-06T08:23:59;101773.00;;;23.00
71564;BMP180;59391;52.504;13.438;2022-09-06T08:26:27;101775.00;;;23.20
71564;BMP180;59391;52.504;13.438;2022-09-06T08:29:00;101784.00;;;23.30
71564;BMP180;59391;52.504;13.438;2022-09-06T08:31:29;101778.00;;;23.40
71564;BMP180;59391;52.504;13.438;2022-09-06T08:33:56;101779.00;;;23.50
71564;BMP180;59391;52.504;13.438;2022-09-06T08:36:22;101784.00;;;23.50
71564;BMP180;59391;52.504;13.438;2022-09-06T08:38:50;101761.00;;;23.60
71564;BMP180;59391;52.504;13.438;2022-09-06T08:41:23;101778.00;;;23.80
71564;BMP180;59391;52.504;13.438;2022-09-06T08:43:55;101780.00;;;24.00
71564;BMP180;59391;52.504;13.438;2022-09-06T08:46:30;101768.00;;;24.20
71564;BMP180;59391;52.504;13.438;2022-09-06T08:48:57;101772.00;;;24.50
71564;BMP180;59391;52.504;13.438;2022-09-06T08:51:55;101771.00;;;24.80
71564;BMP180;59391;52.504;13.438;2022-09-06T08:54:45;101777.00;;;25.00
71564;BMP180;59391;52.504;13.438;2022-09-06T08:57:55;101775.00;;;25.30
71564;BMP180;59391;52.504;13.438;2022-09-06T09:00:24;101756.00;;;25.50
71564;BMP180;59391;52.504;13.438;2022-09-06T09:03:09;101752.00;;;25.70
71564;BMP180;59391;52.504;13.438;2022-09-06T09:05:38;101751.00;;;25.90
71564;BMP180;59391;52.504;13.438;2022-09-06T09:08:29;101761.00;;;26.00
71564;BMP180;59391;52.504;13.438;2022-09-06T09:11:00;101755.00;;;26.10
71564;BMP180;59391;52.504;13.438;2022-09-06T09:14:20;101753.00;;;26.30
71564;BMP180;59391;52.504;13.438;2022-09-06T09:16:54;101760.00;;;26.50
71564;BMP180;59391;52.504;13.438;2022-09-06T09:19:20;101747.00;;;26.60
71564;BMP180;59391;52.504;13.438;2022-09-06T09:21:46;101746.00;;;26.60
71564;BMP180;59391;52.504;13.438;2022-09-06T09:24:14;101743.00;;;26.70
71564;BMP180;59391;52.504;13.438;2022-09-06T09:27:06;101756.00;;;26.70
71564;BMP180;59391;52.504;13.438;2022-09-06T09:32:37;101746.00;;;26.70
71564;BMP180;59391;52.504;13.438;2022-09-06T09:38:12;101743.00;;;26.70
71564;BMP180;59391;52.504;13.438;2022-09-06T09:40:57;101732.00;;;26.70
71564;BMP180;59391;52.504;13.438;2022-09-06T09:43:35;101729.00;;;26.70
71564;BMP180;59391;52.504;13.438;2022-09-06T09:46:16;101729.00;;;26.70
71564;BMP180;59391;52.504;13.438;2022-09-06T09:49:13;101706.00;;;26.80
71564;BMP180;59391;52.504;13.438;2022-09-06T09:52:12;101710.00;;;26.80
71564;BMP180;59391;52.504;13.438;2022-09-06T09:54:44;101705.00;;;26.80
71564;BMP180;59391;52.504;13.438;2022-09-06T09:57:17;101697.00;;;26.70
71564;BMP180;59391;52.504;13.438;2022-09-06T09:59:47;101705.00;;;26.70
71564;BMP180;59391;52.504;13.438;2022-09-06T10:02:35;101690.00;;;26.70
71564;BMP180;59391;52.504;13.438;2022-09-06T10:05:18;101697.00;;;26.70
71564;BMP180;59391;52.504;13.438;2022-09-06T10:07:54;101698.00;;;26.80
71564;BMP180;59391;52.504;13.438;2022-09-06T10:10:27;101696.00;;;26.90
71564;BMP180;59391;52.504;13.438;2022-09-06T10:13:17;101695.00;;;26.90
71564;BMP180;59391;52.504;13.438;2022-09-06T10:15:45;101681.00;;;26.80
71564;BMP180;59391;52.504;13.438;2022-09-06T10:18:41;101705.00;;;26.70
71564;BMP180;59391;52.504;13.438;2022-09-06T10:21:20;101688.00;;;26.60
71564;BMP180;59391;52.504;13.438;2022-09-06T10:26:50;101691.00;;;26.40
71564;BMP180;59391;52.504;13.438;2022-09-06T10:29:37;101682.00;;;26.30
71564;BMP180;59391;52.504;13.438;2022-09-06T10:32:41;101693.00;;;26.20
71564;BMP180;59391;52.504;13.438;2022-09-06T10:35:24;101674.00;;;26.10
71564;BMP180;59391;52.504;13.438;2022-09-06T10:38:30;101684.00;;;26.00
71564;BMP180;59391;52.504;13.438;2022-09-06T10:41:53;101681.00;;;25.90
71564;BMP180;59391;52.504;13.438;2022-09-06T10:47:14;101677.00;;;25.70
71564;BMP180;59391;52.504;13.438;2022-09-06T10:49:46;101669.00;;;25.80
71564;BMP180;59391;52.504;13.438;2022-09-06T10:52:35;101655.00;;;25.90
71564;BMP180;59391;52.504;13.438;2022-09-06T10:55:05;101668.00;;;25.90
71564;BMP180;59391;52.504;13.438;2022-09-06T10:57:50;101654.00;;;25.90
71564;BMP180;59391;52.504;13.438;2022-09-06T11:00:19;101658.00;;;25.90
71564;BMP180;59391;52.504;13.438;2022-09-06T11:03:05;101663.00;;;25.90
71564;BMP180;59391;52.504;13.438;2022-09-06T11:05:40;101649.00;;;25.90
71564;BMP180;59391;52.504;13.438;2022-09-06T11:08:17;101656.00;;;26.00
71564;BMP180;59391;52.504;13.438;2022-09-06T11:10:48;101660.00;;;26.10
71564;BMP180;59391;52.504;13.438;2022-09-06T11:13:18;101660.00;;;26.20
71564;BMP180;59391;52.504;13.438;2022-09-06T11:27:33;101663.00;;;27.10
71564;BMP180;59391;52.504;13.438;2022-09-06T11:30:02;101651.00;;;27.10
71564;BMP180;59391;52.504;13.438;2022-09-06T11:32:39;101631.00;;;27.00
71564;BMP180;59391;52.504;13.438;2022-09-06T11:35:24;101635.00;;;27.00
71564;BMP180;59391;52.504;13.438;2022-09-06T11:40:45;101633.00;;;26.80
71564;BMP180;59391;52.504;13.438;2022-09-06T11:43:49;101645.00;;;26.70
71564;BMP180;59391;52.504;13.438;2022-09-06T11:49:32;101628.00;;;26.60
71564;BMP180;59391;52.504;13.438;2022-09-06T11:51:59;101635.00;;;26.60
71564;BMP180;59391;52.504;13.438;2022-09-06T11:54:36;101629.00;;;26.50
71564;BMP180;59391;52.504;13.438;2022-09-06T11:57:16;101621.00;;;26.50
71564;BMP180;59391;52.504;13.438;2022-09-06T12:02:42;101634.00;;;26.50
71564;BMP180;59391;52.504;13.438;2022-09-06T12:05:14;101634.00;;;26.40
71564;BMP180;59391;52.504;13.438;2022-09-06T12:08:26;101628.00;;;26.40
71564;BMP180;59391;52.504;13.438;2022-09-06T12:16:12;101627.00;;;26.30
71564;BMP180;59391;52.504;13.438;2022-09-06T12:21:43;101606.00;;;26.30
71564;BMP180;59391;52.504;13.438;2022-09-06T12:27:16;101621.00;;;26.40
71564;BMP180;59391;52.504;13.438;2022-09-06T12:32:22;101614.00;;;26.50
71564;BMP180;59391;52.504;13.438;2022-09-06T12:34:51;101616.00;;;26.60
71564;BMP180;59391;52.504;13.438;2022-09-06T12:37:35;101607.00;;;26.70
71564;BMP180;59391;52.504;13.438;2022-09-06T12:40:05;101613.00;;;26.80
71564;BMP180;59391;52.504;13.438;2022-09-06T12:42:36;101602.00;;;26.80
71564;BMP180;59391;52.504;13.438;2022-09-06T12:45:04;101599.00;;;26.80
71564;BMP180;59391;52.504;13.438;2022-09-06T12:47:34;101597.00;;;26.80
71564;BMP180;59391;52.504;13.438;2022-09-06T12:52:31;101590.00;;;26.90
71564;BMP180;59391;52.504;13.438;2022-09-06T12:54:57;101590.00;;;27.00
71564;BMP180;59391;52.504;13.438;2022-09-06T12:57:24;101594.00;;;27.00
71564;BMP180;59391;52.504;13.438;2022-09-06T13:00:00;101586.00;;;27.00
71564;BMP180;59391;52.504;13.438;2022-09-06T13:02:32;101586.00;;;27.10
71564;BMP180;59391;52.504;13.438;2022-09-06T13:05:10;101573.00;;;27.00
71564;BMP180;59391;52.504;13.438;2022-09-06T13:07:43;101572.00;;;27.20
71564;BMP180;59391;52.504;13.438;2022-09-06T13:10:12;101571.00;;;27.30
71564;BMP180;59391;52.504;13.438;2022-09-06T13:12:44;101566.00;;;27.40
71564;BMP180;59391;52.504;13.438;2022-09-06T13:15:17;101566.00;;;27.40
71564;BMP180;59391;52.504;13.438;2022-09-06T13:17:46;101564.00;;;27.50
71564;BMP180;59391;52.504;13.438;2022-09-06T13:20:25;101566.00;;;27.50
71564;BMP180;59391;52.504;13.438;2022-09-06T13:22:52;101557.00;;;27.60
71564;BMP180;59391;52.504;13.438;2022-09-06T13:27:47;101560.00;;;27.60
71564;BMP180;59391;52.504;13.438;2022-09-06T13:30:38;101553.00;;;27.60
71564;BMP180;59391;52.504;13.438;2022-09-06T13:33:07;101557.00;;;27.50
71564;BMP180;59391;52.504;13.438;2022-09-06T13:35:49;101552.00;;;27.50
71564;BMP180;59391;52.504;13.438;2022-09-06T13:38:21;101538.00;;;27.50
71564;BMP180;59391;52.504;13.438;2022-09-06T13:40:54;101538.00;;;27.50
71564;BMP180;59391;52.504;13.438;2022-09-06T13:43:24;101545.00;;;27.50
71564;BMP180;59391;52.504;13.438;2022-09-06T13:46:05;101544.00;;;27.50
71564;BMP180;59391;52.504;13.438;2022-09-06T13:48:31;101540.00;;;27.50
71564;BMP180;59391;52.504;13.438;2022-09-06T13:50:57;101545.00;;;27.60
71564;BMP180;59391;52.504;13.438;2022-09-06T13:53:23;101549.00;;;27.70
71564;BMP180;59391;52.504;13.438;2022-09-06T13:55:49;101549.00;;;27.80
71564;BMP180;59391;52.504;13.438;2022-09-06T13:58:17;101555.00;;;27.90
71564;BMP180;59391;52.504;13.438;2022-09-06T14:00:43;101554.00;;;28.00
71564;BMP180;59391;52.504;13.438;2022-09-06T14:03:23;101547.00;;;28.10
71564;BMP180;59391;52.504;13.438;2022-09-06T14:05:49;101549.00;;;28.10
71564;BMP180;59391;52.504;13.438;2022-09-06T14:08:15;101555.00;;;28.10
71564;BMP180;59391;52.504;13.438;2022-09-06T14:10:42;101554.00;;;28.20
71564;BMP180;59391;52.504;13.438;2022-09-06T14:13:08;101550.00;;;28.20
71564;BMP180;59391;52.504;13.438;2022-09-06T14:15:34;101542.00;;;28.30
71564;BMP180;59391;52.504;13.438;2022-09-06T14:18:00;101542.00;;;28.30
71564;BMP180;59391;52.504;13.438;2022-09-06T14:20:25;101549.00;;;28.30
71564;BMP180;59391;52.504;13.438;2022-09-06T14:22:51;101535.00;;;28.30
71564;BMP180;59391;52.504;13.438;2022-09-06T14:25:16;101539.00;;;28.20
71564;BMP180;59391;52.504;13.438;2022-09-06T14:27:42;101541.00;;;28.20
71564;BMP180;59391;52.504;13.438;2022-09-06T14:30:08;101539.00;;;28.20
71564;BMP180;59391;52.504;13.438;2022-09-06T14:32:34;101535.00;;;28.10
71564;BMP180;59391;52.504;13.438;2022-09-06T14:35:00;101530.00;;;28.20
71564;BMP180;59391;52.504;13.438;2022-09-06T14:37:27;101539.00;;;28.20
71564;BMP180;59391;52.504;13.438;2022-09-06T14:39:52;101538.00;;;28.10
71564;BMP180;59391;52.504;13.438;2022-09-06T14:42:18;101528.00;;;28.10
71564;BMP180;59391;52.504;13.438;2022-09-06T14:44:46;101543.00;;;28.20
71564;BMP180;59391;52.504;13.438;2022-09-06T14:47:14;101544.00;;;28.20
71564;BMP180;59391;52.504;13.438;2022-09-06T14:49:40;101538.00;;;28.20
71564;BMP180;59391;52.504;13.438;2022-09-06T14:52:06;101535.00;;;28.10
71564;BMP180;59391;52.504;13.438;2022-09-06T14:54:31;101538.00;;;28.10
71564;BMP180;59391;52.504;13.438;2022-09-06T14:56:57;101533.00;;;28.10
71564;BMP180;59391;52.504;13.438;2022-09-06T14:59:23;101534.00;;;28.10
71564;BMP180;59391;52.504;13.438;2022-09-06T15:01:49;101536.00;;;28.00
71564;BMP180;59391;52.504;13.438;2022-09-06T15:04:15;101539.00;;;28.00
71564;BMP180;59391;52.504;13.438;2022-09-06T15:06:41;101519.00;;;27.90
71564;BMP180;59391;52.504;13.438;2022-09-06T15:09:15;101529.00;;;27.90
71564;BMP180;59391;52.504;13.438;2022-09-06T15:11:45;101516.00;;;27.80
71564;BMP180;59391;52.504;13.438;2022-09-06T15:14:21;101520.00;;;27.80
71564;BMP180;59391;52.504;13.438;2022-09-06T15:16:49;101515.00;;;27.70
71564;BMP180;59391;52.504;13.438;2022-09-06T15:19:22;101511.00;;;27.70
71564;BMP180;59391;52.504;13.438;2022-09-06T15:21:49;101520.00;;;27.60
71564;BMP180;59391;52.504;13.438;2022-09-06T15:24:15;101512.00;;;27.50